createdAt,value
2023-01-08T00:01:10.447Z,8.38
2023-01-08T00:03:38.530Z,8.85
2023-01-08T00:06:08.929Z,7.97
2023-01-08T00:08:36.255Z,7.60
2023-01-08T00:11:03.546Z,8.25
2023-01-08T00:13:30.941Z,6.15
2023-01-08T00:16:02.114Z,8.57
2023-01-08T00:18:29.355Z,7.75
2023-01-08T00:20:56.650Z,6.55
2023-01-08T00:23:24.302Z,7.80
2023-01-08T00:25:51.553Z,6.90
2023-01-08T00:28:20.966Z,6.10
2023-01-08T00:30:49.277Z,4.38
2023-01-08T00:33:16.610Z,6.28
2023-01-08T00:35:43.903Z,6.13
2023-01-08T00:38:11.494Z,6.82
2023-01-08T00:40:40.415Z,4.85
2023-01-08T00:43:08.210Z,5.90
2023-01-08T00:45:35.811Z,5.22
2023-01-08T00:48:03.112Z,4.90
2023-01-08T00:50:30.437Z,5.13
2023-01-08T00:52:57.886Z,4.75
2023-01-08T00:55:25.142Z,5.50
2023-01-08T00:57:52.483Z,5.60
2023-01-08T01:00:19.910Z,4.65
2023-01-08T01:02:47.178Z,5.22
2023-01-08T01:05:17.796Z,4.22
2023-01-08T01:07:45.482Z,4.88
2023-01-08T01:10:15.257Z,5.10
2023-01-08T01:12:43.043Z,5.00
2023-01-08T01:15:13.539Z,5.15
2023-01-08T01:17:42.452Z,4.70
2023-01-08T01:20:12.762Z,4.25
2023-01-08T01:22:40.359Z,4.35
2023-01-08T01:25:08.776Z,5.35
2023-01-08T01:27:36.124Z,6.10
2023-01-08T01:30:04.279Z,3.70
2023-01-08T01:32:31.630Z,4.78
2023-01-08T01:34:58.889Z,5.45
2023-01-08T01:37:26.236Z,3.85
2023-01-08T01:39:53.495Z,4.13
2023-01-08T01:42:39.773Z,3.92
2023-01-08T01:45:16.091Z,3.85
2023-01-08T01:47:46.654Z,3.35
2023-01-08T01:50:29.005Z,2.88
2023-01-08T01:53:01.031Z,2.67
2023-01-08T01:55:30.188Z,2.80
2023-01-08T01:58:12.283Z,4.40
2023-01-08T02:00:40.252Z,3.75
2023-01-08T02:03:10.500Z,3.22
2023-01-08T02:05:55.679Z,3.92
2023-01-08T02:08:44.137Z,3.55
2023-01-08T02:11:32.706Z,4.18
2023-01-08T02:14:28.852Z,3.83
2023-01-08T02:17:09.522Z,3.38
2023-01-08T02:19:45.285Z,3.80
2023-01-08T02:22:30.516Z,3.15
2023-01-08T02:25:31.752Z,2.75
2023-01-08T02:28:02.487Z,3.40
2023-01-08T02:30:30.411Z,2.42
2023-01-08T02:32:57.672Z,2.53
2023-01-08T02:35:33.273Z,1.95
2023-01-08T02:38:00.541Z,2.53
2023-01-08T02:40:37.941Z,2.90
2023-01-08T02:43:14.621Z,2.88
2023-01-08T02:45:49.287Z,2.90
2023-01-08T02:51:03.177Z,1.90
2023-01-08T02:53:36.151Z,3.60
2023-01-08T02:56:08.218Z,4.05
2023-01-08T02:58:38.106Z,2.75
2023-01-08T03:01:09.416Z,2.33
2023-01-08T03:03:40.508Z,2.83
2023-01-08T03:06:15.590Z,2.50
2023-01-08T03:08:46.497Z,2.08
2023-01-08T03:11:17.368Z,2.53
2023-01-08T03:14:07.936Z,3.63
2023-01-08T03:17:11.571Z,2.80
2023-01-08T03:19:47.913Z,2.75
2023-01-08T03:22:17.861Z,3.60
2023-01-08T03:24:49.832Z,2.22
2023-01-08T03:27:24.929Z,4.03
2023-01-08T03:29:56.740Z,2.83
2023-01-08T03:32:25.698Z,2.25
2023-01-08T03:34:56.428Z,2.88
2023-01-08T03:37:34.492Z,2.42
2023-01-08T03:40:05.330Z,2.35
2023-01-08T03:42:33.585Z,2.05
2023-01-08T03:45:01.335Z,3.15
2023-01-08T03:47:31.868Z,3.78
2023-01-08T03:50:03.291Z,1.92
2023-01-08T03:52:33.022Z,2.90
2023-01-08T03:55:00.291Z,2.70
2023-01-08T03:57:27.809Z,2.50
2023-01-08T03:59:55.182Z,1.80
2023-01-08T04:02:22.655Z,1.98
2023-01-08T04:04:50.047Z,2.83
2023-01-08T04:07:17.352Z,4.13
2023-01-08T04:09:44.668Z,2.08
2023-01-08T04:12:11.952Z,2.75
2023-01-08T04:14:39.242Z,3.60
2023-01-08T04:17:06.516Z,4.43
2023-01-08T04:19:33.814Z,2.35
2023-01-08T04:22:01.121Z,2.35
2023-01-08T04:24:28.382Z,2.72
2023-01-08T04:26:55.634Z,1.92
2023-01-08T04:29:22.861Z,1.73
2023-01-08T04:31:50.167Z,2.22
2023-01-08T04:34:17.382Z,1.50
2023-01-08T04:36:44.680Z,2.10
2023-01-08T04:39:12.348Z,1.88
2023-01-08T04:41:39.704Z,3.75
2023-01-08T04:44:06.986Z,2.38
2023-01-08T04:46:34.464Z,2.78
2023-01-08T04:49:01.881Z,1.80
2023-01-08T04:51:29.181Z,2.60
2023-01-08T04:53:57.301Z,2.42
2023-01-08T04:56:24.655Z,2.22
2023-01-08T04:58:52.588Z,2.97
2023-01-08T05:01:25.555Z,3.70
2023-01-08T05:04:04.492Z,1.98
2023-01-08T05:06:32.940Z,1.27
2023-01-08T05:09:00.427Z,1.70
2023-01-08T05:11:27.757Z,2.17
2023-01-08T05:13:55.405Z,2.58
2023-01-08T05:16:23.617Z,4.53
2023-01-08T05:18:50.945Z,2.03
2023-01-08T05:21:18.411Z,1.75
2023-01-08T05:23:50.410Z,3.45
2023-01-08T05:26:19.210Z,1.35
2023-01-08T05:28:46.556Z,2.13
2023-01-08T05:31:14.439Z,3.17
2023-01-08T05:33:42.001Z,1.77
2023-01-08T05:36:11.489Z,2.30
2023-01-08T05:38:39.522Z,2.53
2023-01-08T05:41:07.704Z,4.88
2023-01-08T05:43:36.388Z,2.58
2023-01-08T05:46:04.740Z,1.40
2023-01-08T05:48:34.896Z,3.10
2023-01-08T05:51:02.807Z,2.28
2023-01-08T05:53:32.037Z,2.33
2023-01-08T05:56:04.289Z,3.17
2023-01-08T05:58:31.879Z,2.30
2023-01-08T06:01:11.647Z,2.58
2023-01-08T06:03:39.801Z,2.03
2023-01-08T06:06:08.352Z,2.47
2023-01-08T06:08:35.777Z,1.83
2023-01-08T06:11:06.300Z,2.95
2023-01-08T06:13:34.655Z,2.28
2023-01-08T06:16:02.530Z,3.15
2023-01-08T06:18:30.576Z,2.80
2023-01-08T06:20:58.026Z,1.60
2023-01-08T06:23:25.559Z,2.10
2023-01-08T06:25:54.707Z,1.70
2023-01-08T06:28:23.065Z,2.58
2023-01-08T06:30:50.662Z,1.70
2023-01-08T06:33:20.984Z,2.80
2023-01-08T06:35:48.675Z,2.47
2023-01-08T06:38:19.171Z,1.63
2023-01-08T06:40:47.872Z,2.55
2023-01-08T06:43:15.577Z,2.83
2023-01-08T06:45:43.007Z,2.17
2023-01-08T06:48:10.369Z,2.60
2023-01-08T06:50:37.648Z,1.83
2023-01-08T06:53:04.954Z,2.63
2023-01-08T06:55:32.238Z,3.38
2023-01-08T06:57:59.570Z,3.15
2023-01-08T07:00:27.268Z,2.22
2023-01-08T07:02:55.392Z,3.45
2023-01-08T07:05:23.628Z,2.13
2023-01-08T07:07:51.315Z,4.32
2023-01-08T07:10:20.130Z,3.78
2023-01-08T07:12:48.213Z,4.10
2023-01-08T07:15:16.786Z,4.97
2023-01-08T07:17:44.074Z,2.58
2023-01-08T07:20:11.597Z,3.05
2023-01-08T07:22:38.908Z,2.15
2023-01-08T07:25:07.236Z,2.58
2023-01-08T07:27:34.485Z,2.58
2023-01-08T07:30:01.875Z,4.05
2023-01-08T07:32:29.161Z,2.08
2023-01-08T07:34:59.127Z,3.78
2023-01-08T07:37:26.764Z,3.58
2023-01-08T07:39:54.027Z,3.38
2023-01-08T07:42:21.337Z,3.63
2023-01-08T07:44:48.591Z,3.78
2023-01-08T07:47:15.876Z,2.72
2023-01-08T07:49:43.134Z,3.50
2023-01-08T07:52:10.417Z,3.28
2023-01-08T07:54:37.649Z,2.22
2023-01-08T07:57:04.961Z,5.05
2023-01-08T07:59:32.184Z,2.03
2023-01-08T08:01:59.589Z,4.45
2023-01-08T08:04:26.939Z,3.42
2023-01-08T08:06:55.263Z,3.25
2023-01-08T08:09:22.594Z,3.45
2023-01-08T08:11:49.875Z,2.53
2023-01-08T08:14:17.129Z,2.65
2023-01-08T08:16:44.393Z,5.75
2023-01-08T08:19:12.739Z,3.63
2023-01-08T08:21:40.092Z,2.47
2023-01-08T08:24:07.643Z,2.78
2023-01-08T08:26:34.904Z,3.53
2023-01-08T08:29:02.413Z,2.85
2023-01-08T08:31:29.683Z,3.10
2023-01-08T08:33:57.028Z,3.47
2023-01-08T08:36:29.745Z,3.65
2023-01-08T08:38:57.186Z,3.88
2023-01-08T08:41:24.538Z,3.85
2023-01-08T08:43:51.859Z,4.68
2023-01-08T08:46:19.564Z,4.63
2023-01-08T08:48:47.157Z,3.67
2023-01-08T08:51:14.886Z,3.75
2023-01-08T08:53:42.127Z,6.30
2023-01-08T08:56:09.469Z,3.78
2023-01-08T08:58:36.782Z,3.88
2023-01-08T09:01:04.977Z,4.57
2023-01-08T09:03:32.399Z,5.03
2023-01-08T09:06:00.006Z,4.97
2023-01-08T09:08:27.553Z,4.75
2023-01-08T09:10:54.921Z,3.63
2023-01-08T09:13:22.230Z,4.82
2023-01-08T09:15:49.513Z,5.07
2023-01-08T09:18:16.805Z,5.13
2023-01-08T09:20:44.071Z,4.20
2023-01-08T09:23:11.414Z,4.15
2023-01-08T09:25:38.689Z,5.60
2023-01-08T09:28:08.939Z,6.72
2023-01-08T09:30:36.269Z,3.90
2023-01-08T09:33:04.650Z,5.25
2023-01-08T09:35:35.127Z,6.63
2023-01-08T09:38:02.481Z,5.03
2023-01-08T09:40:39.565Z,5.25
2023-01-08T09:43:08.289Z,6.45
2023-01-08T09:45:38.670Z,4.80
2023-01-08T09:48:16.721Z,6.97
2023-01-08T09:50:44.339Z,6.30
2023-01-08T09:53:15.658Z,5.50
2023-01-08T09:55:44.761Z,7.20
2023-01-08T09:58:54.530Z,6.22
2023-01-08T10:01:28.360Z,7.20
2023-01-08T10:04:14.516Z,6.20
2023-01-08T10:06:46.784Z,6.82
2023-01-08T10:09:15.536Z,7.22
2023-01-08T10:11:46.182Z,5.13
2023-01-08T10:14:30.016Z,5.90
2023-01-08T10:17:11.519Z,6.43
2023-01-08T10:19:39.630Z,6.13
2023-01-08T10:22:16.459Z,7.90
2023-01-08T10:24:44.230Z,5.53
2023-01-08T10:27:20.875Z,7.05
2023-01-08T10:29:51.956Z,8.30
2023-01-08T10:32:28.987Z,6.50
2023-01-08T10:35:03.569Z,5.32
2023-01-08T10:37:42.608Z,8.00
2023-01-08T10:40:37.752Z,7.25
2023-01-08T10:43:45.220Z,7.20
2023-01-08T10:46:28.334Z,7.43
2023-01-08T10:48:58.955Z,8.18
2023-01-08T10:51:28.513Z,7.35
2023-01-08T10:54:01.848Z,7.28
2023-01-08T10:56:42.795Z,6.53
2023-01-08T10:59:23.486Z,6.40
2023-01-08T11:01:53.234Z,7.28
2023-01-08T11:04:36.250Z,7.45
2023-01-08T11:07:06.981Z,7.35
2023-01-08T11:09:41.340Z,8.57
2023-01-08T11:12:42.197Z,6.05
2023-01-08T11:15:40.180Z,8.02
2023-01-08T11:18:25.481Z,6.03
2023-01-08T11:21:05.967Z,7.38
2023-01-08T11:23:33.259Z,8.15
2023-01-08T11:26:09.947Z,7.22
2023-01-08T11:28:59.982Z,7.80
2023-01-08T11:31:45.631Z,6.72
2023-01-08T11:34:27.987Z,5.72
2023-01-08T11:37:11.537Z,5.97
2023-01-08T11:39:39.300Z,6.13
2023-01-08T11:42:38.639Z,6.10
2023-01-08T11:45:19.119Z,8.73
2023-01-08T11:48:07.947Z,6.25
2023-01-08T11:50:52.925Z,5.70
2023-01-08T11:53:30.125Z,5.68
2023-01-08T11:56:12.237Z,6.75
2023-01-08T11:59:20.613Z,8.23
2023-01-08T12:02:41.506Z,6.88
2023-01-08T12:05:36.265Z,9.23
2023-01-08T12:08:17.399Z,7.72
2023-01-08T12:10:56.348Z,10.13
2023-01-08T12:13:35.531Z,12.68
2023-01-08T12:16:21.394Z,13.52
2023-01-08T12:19:25.696Z,15.98
2023-01-08T12:22:30.221Z,19.95
2023-01-08T12:25:25.338Z,24.10
2023-01-08T12:28:25.872Z,22.92
2023-01-08T12:31:44.249Z,27.02
2023-01-08T12:34:25.983Z,25.77
2023-01-08T12:37:03.400Z,25.33
2023-01-08T12:39:37.681Z,27.63
2023-01-08T12:42:14.154Z,25.83
2023-01-08T12:44:41.611Z,24.73
2023-01-08T12:47:16.927Z,23.83
2023-01-08T12:49:54.660Z,25.90
2023-01-08T12:52:55.850Z,24.27
2023-01-08T12:56:01.114Z,25.20
2023-01-08T12:58:31.075Z,26.17
2023-01-08T13:01:25.299Z,27.35
2023-01-08T13:03:54.854Z,29.23
2023-01-08T13:06:23.096Z,27.73
2023-01-08T13:08:55.857Z,27.50
2023-01-08T13:11:38.477Z,29.45
2023-01-08T13:14:15.543Z,29.15
2023-01-08T13:16:45.409Z,29.73
2023-01-08T13:19:26.464Z,33.63
2023-01-08T13:21:56.624Z,32.00
2023-01-08T13:24:34.257Z,32.20
2023-01-08T13:27:19.937Z,32.05
2023-01-08T13:29:49.583Z,31.60
2023-01-08T13:32:45.693Z,29.73
2023-01-08T13:35:15.949Z,31.77
2023-01-08T13:37:44.538Z,27.50
2023-01-08T13:40:47.301Z,29.17
2023-01-08T13:43:18.755Z,26.08
2023-01-08T13:46:02.434Z,26.27
2023-01-08T13:48:39.379Z,26.30
2023-01-08T13:51:19.560Z,26.63
2023-01-08T13:53:46.915Z,23.75
2023-01-08T13:56:14.249Z,24.58
2023-01-08T13:58:53.892Z,24.73
2023-01-08T14:01:22.585Z,24.60
2023-01-08T14:03:50.315Z,23.63
2023-01-08T14:06:19.359Z,20.80
2023-01-08T14:09:01.614Z,24.00
2023-01-08T14:11:32.483Z,21.83
2023-01-08T14:13:59.959Z,22.95
2023-01-08T14:16:27.631Z,20.33
2023-01-08T14:19:01.121Z,21.48
2023-01-08T14:21:29.197Z,20.73
2023-01-08T14:23:56.627Z,24.23
2023-01-08T14:26:35.565Z,20.05
2023-01-08T14:29:04.957Z,20.83
2023-01-08T14:31:32.220Z,19.63
2023-01-08T14:34:00.628Z,19.27
2023-01-08T14:36:28.165Z,18.75
2023-01-08T14:38:55.537Z,18.90
2023-01-08T14:41:53.843Z,20.45
2023-01-08T14:44:36.655Z,18.58
2023-01-08T14:47:15.316Z,18.73
2023-01-08T14:49:44.639Z,17.55
2023-01-08T14:52:15.159Z,16.92
2023-01-08T14:54:44.926Z,16.73
2023-01-08T14:57:13.205Z,16.92
2023-01-08T14:59:40.640Z,17.90
2023-01-08T15:02:18.376Z,16.55
2023-01-08T15:04:45.842Z,16.65
2023-01-08T15:07:29.536Z,14.88
2023-01-08T15:10:01.463Z,15.68
2023-01-08T15:12:31.549Z,15.80
2023-01-08T15:15:22.152Z,14.93
2023-01-08T15:17:49.590Z,14.55
2023-01-08T15:20:22.347Z,15.38
2023-01-08T15:22:50.437Z,15.73
2023-01-08T15:25:24.840Z,15.40
2023-01-08T15:28:01.775Z,12.73
2023-01-08T15:30:37.122Z,13.25
2023-01-08T15:33:19.875Z,12.75
2023-01-08T15:35:48.126Z,12.02
2023-01-08T15:38:16.263Z,13.40
2023-01-08T15:40:44.682Z,12.57
2023-01-08T15:43:14.857Z,12.48
2023-01-08T15:45:45.432Z,13.05
2023-01-08T15:48:14.689Z,10.98
2023-01-08T15:50:44.267Z,11.85
2023-01-08T15:53:18.466Z,10.50
2023-01-08T15:55:46.939Z,10.73
2023-01-08T15:58:15.769Z,10.98
2023-01-08T16:00:45.061Z,10.52
2023-01-08T16:03:13.927Z,12.20
2023-01-08T16:05:41.350Z,11.10
2023-01-08T16:08:09.796Z,11.02
2023-01-08T16:10:37.323Z,11.07
2023-01-08T16:13:04.607Z,12.00
2023-01-08T16:15:31.972Z,11.73
2023-01-08T16:17:59.625Z,11.32
2023-01-08T16:20:27.077Z,10.23
2023-01-08T16:22:55.143Z,9.98
2023-01-08T16:25:24.126Z,10.25
2023-01-08T16:27:52.210Z,9.82
2023-01-08T16:30:19.771Z,10.32
2023-01-08T16:32:52.416Z,9.30
2023-01-08T16:35:20.953Z,8.55
2023-01-08T16:37:48.659Z,8.63
2023-01-08T16:40:16.621Z,8.13
2023-01-08T16:42:44.058Z,8.88
2023-01-08T16:45:11.481Z,9.90
2023-01-08T16:47:39.856Z,7.97
2023-01-08T16:50:08.078Z,8.43
2023-01-08T16:52:36.977Z,8.48
2023-01-08T16:55:04.959Z,6.95
2023-01-08T16:57:32.269Z,7.22
2023-01-08T16:59:59.532Z,7.13
2023-01-08T17:02:27.379Z,7.13
2023-01-08T17:04:54.608Z,7.38
2023-01-08T17:07:21.854Z,7.20
2023-01-08T17:09:49.086Z,5.97
2023-01-08T17:12:22.355Z,6.75
2023-01-08T17:14:50.793Z,6.32
2023-01-08T17:17:18.290Z,5.97
2023-01-08T17:19:45.595Z,6.90
2023-01-08T17:22:12.907Z,6.65
2023-01-08T17:24:40.586Z,5.82
2023-01-08T17:27:07.898Z,6.40
2023-01-08T17:29:35.263Z,6.03
2023-01-08T17:32:02.787Z,5.38
2023-01-08T17:34:30.011Z,5.68
2023-01-08T17:36:57.309Z,6.95
2023-01-08T17:39:24.621Z,5.78
2023-01-08T17:42:10.678Z,6.25
2023-01-08T17:44:37.935Z,5.18
2023-01-08T17:47:05.203Z,5.57
2023-01-08T17:49:32.668Z,5.78
2023-01-08T17:52:00.130Z,5.55
2023-01-08T17:54:27.496Z,5.63
2023-01-08T17:56:54.776Z,6.57
2023-01-08T17:59:22.256Z,6.68
2023-01-08T18:01:51.472Z,6.60
2023-01-08T18:04:19.168Z,5.28
2023-01-08T18:06:46.715Z,6.72
2023-01-08T18:09:14.088Z,6.03
2023-01-08T18:11:42.576Z,6.35
2023-01-08T18:14:12.470Z,5.53
2023-01-08T18:16:45.188Z,5.72
2023-01-08T18:19:13.072Z,6.00
2023-01-08T18:21:40.415Z,5.13
2023-01-08T18:24:08.056Z,5.55
2023-01-08T18:26:35.415Z,6.07
2023-01-08T18:29:03.077Z,5.45
2023-01-08T18:31:30.377Z,4.60
2023-01-08T18:33:58.528Z,7.07
2023-01-08T18:36:25.892Z,6.43
2023-01-08T18:38:53.147Z,5.50
2023-01-08T18:41:39.746Z,7.05
2023-01-08T18:44:08.313Z,5.60
2023-01-08T18:46:35.742Z,6.13
2023-01-08T18:49:03.683Z,7.22
2023-01-08T18:51:30.929Z,7.38
2023-01-08T18:53:58.600Z,7.68
2023-01-08T18:56:31.925Z,6.43
2023-01-08T18:58:59.840Z,6.88
2023-01-08T19:01:27.633Z,6.00
2023-01-08T19:03:58.414Z,6.75
2023-01-08T19:06:25.996Z,6.78
2023-01-08T19:08:55.270Z,7.93
2023-01-08T19:11:24.236Z,6.65
2023-01-08T19:13:57.597Z,8.02
2023-01-08T19:16:25.400Z,6.45
2023-01-08T19:18:53.344Z,6.90
2023-01-08T19:21:20.935Z,9.60
2023-01-08T19:23:48.482Z,19.92
2023-01-08T19:26:16.504Z,25.02
2023-01-08T19:28:44.499Z,44.00
2023-01-08T19:31:15.221Z,40.67
2023-01-08T19:33:43.066Z,36.45
2023-01-08T19:36:15.968Z,35.45
2023-01-08T19:38:44.644Z,39.42
2023-01-08T19:41:31.218Z,38.28
2023-01-08T19:43:59.229Z,29.40
2023-01-08T19:46:26.992Z,31.63
2023-01-08T19:48:58.168Z,22.92
2023-01-08T19:51:26.768Z,23.25
2023-01-08T19:53:55.546Z,24.13
2023-01-08T19:56:23.249Z,22.95
2023-01-08T19:58:50.880Z,27.52
2023-01-08T20:01:22.012Z,43.08
2023-01-08T20:03:50.249Z,32.55
2023-01-08T20:06:21.555Z,33.13
2023-01-08T20:08:50.719Z,38.72
2023-01-08T20:11:19.226Z,30.55
2023-01-08T20:13:46.584Z,37.60
2023-01-08T20:16:17.002Z,33.10
2023-01-08T20:18:45.166Z,38.60
2023-01-08T20:21:21.216Z,36.55
2023-01-08T20:23:49.035Z,37.55
2023-01-08T20:26:19.779Z,27.20
2023-01-08T20:28:47.355Z,25.33
2023-01-08T20:31:17.793Z,33.17
2023-01-08T20:33:45.714Z,42.28
2023-01-08T20:36:19.030Z,33.78
2023-01-08T20:38:47.225Z,35.17
2023-01-08T20:41:14.572Z,41.35
2023-01-08T20:43:42.167Z,38.45
2023-01-08T20:46:11.996Z,30.08
2023-01-08T20:48:46.881Z,33.50
2023-01-08T20:51:15.001Z,29.52
2023-01-08T20:53:42.334Z,24.98
2023-01-08T20:56:13.220Z,28.23
2023-01-08T20:58:43.608Z,23.75
2023-01-08T21:01:16.672Z,25.50
2023-01-08T21:03:44.854Z,25.15
2023-01-08T21:06:15.606Z,37.85
2023-01-08T21:08:44.418Z,26.77
2023-01-08T21:11:12.823Z,29.08
2023-01-08T21:13:40.384Z,26.73
2023-01-08T21:16:11.537Z,21.60
2023-01-08T21:18:43.860Z,21.33
2023-01-08T21:21:12.136Z,24.98
2023-01-08T21:23:39.406Z,21.08
2023-01-08T21:26:12.362Z,16.90
2023-01-08T21:28:41.556Z,22.50
2023-01-08T21:31:16.587Z,16.20
2023-01-08T21:33:47.620Z,15.38
2023-01-08T21:36:18.553Z,14.20
2023-01-08T21:38:46.280Z,16.60
2023-01-08T21:41:41.134Z,16.45
2023-01-08T21:44:36.206Z,15.20
2023-01-08T21:47:05.812Z,12.70
2023-01-08T21:49:33.600Z,13.38
2023-01-08T21:52:19.384Z,13.57
2023-01-08T21:54:46.746Z,11.13
2023-01-08T21:57:14.038Z,14.35
2023-01-08T21:59:41.346Z,12.07
2023-01-08T22:02:13.233Z,10.85
2023-01-08T22:04:40.517Z,11.52
2023-01-08T22:07:07.995Z,8.60
2023-01-08T22:09:35.351Z,10.13
2023-01-08T22:12:02.680Z,8.52
2023-01-08T22:14:30.104Z,9.25
2023-01-08T22:16:57.388Z,8.30
2023-01-08T22:19:25.066Z,8.13
2023-01-08T22:21:52.300Z,8.30
2023-01-08T22:24:19.608Z,9.50
2023-01-08T22:26:48.576Z,6.10
2023-01-08T22:29:15.860Z,10.23
2023-01-08T22:31:43.274Z,7.45
2023-01-08T22:34:14.195Z,6.03
2023-01-08T22:36:41.475Z,6.50
2023-01-08T22:39:09.675Z,7.32
2023-01-08T22:41:37.109Z,8.60
2023-01-08T22:44:04.523Z,5.22
2023-01-08T22:46:31.836Z,4.65
2023-01-08T22:48:59.121Z,7.70
2023-01-08T22:51:29.126Z,5.90
2023-01-08T22:53:57.518Z,5.68
2023-01-08T22:56:25.601Z,5.15
2023-01-08T22:58:53.191Z,6.68
2023-01-08T23:01:23.311Z,3.75
2023-01-08T23:03:52.245Z,6.35
2023-01-08T23:06:21.305Z,4.68
2023-01-08T23:08:49.328Z,5.32
2023-01-08T23:11:18.198Z,4.60
2023-01-08T23:13:46.298Z,3.80
2023-01-08T23:16:16.050Z,4.38
2023-01-08T23:18:43.761Z,3.47
2023-01-08T23:21:13.717Z,3.55
2023-01-08T23:23:41.157Z,3.72
2023-01-08T23:26:20.975Z,4.32
2023-01-08T23:28:49.311Z,3.20
2023-01-08T23:31:20.139Z,2.90
2023-01-08T23:33:47.561Z,3.88
2023-01-08T23:36:18.627Z,3.60
2023-01-08T23:38:51.661Z,6.30
2023-01-08T23:41:21.313Z,4.70
2023-01-08T23:43:49.442Z,3.45
2023-01-08T23:46:17.655Z,2.45
2023-01-08T23:48:45.018Z,4.40
2023-01-08T23:51:12.356Z,4.57
2023-01-08T23:53:39.634Z,2.45
2023-01-08T23:56:07.672Z,1.90
2023-01-08T23:58:35.152Z,3.30
